sensor_id;sensor_type;location;lat;lon;timestamp;P1;durP1;ratioP1;P2;durP2;ratioP2
9461;SDS011;4769;42.660;23.262;2023-05-02T00:02:20;5.50;;;5.00;;
9461;SDS011;4769;42.660;23.262;2023-05-02T00:04:46;7.63;;;6.55;;
9461;SDS011;4769;42.660;23.262;2023-05-02T00:07:12;5.53;;;5.03;;
9461;SDS011;4769;42.660;23.262;2023-05-02T00:09:38;7.88;;;5.05;;
9461;SDS011;4769;42.660;23.262;2023-05-02T00:12:06;6.45;;;5.63;;
9461;SDS011;4769;42.660;23.262;2023-05-02T00:14:32;5.15;;;4.65;;
9461;SDS011;4769;42.660;23.262;2023-05-02T00:16:57;6.05;;;5.55;;
9461;SDS011;4769;42.660;23.262;2023-05-02T00:19:23;5.45;;;4.95;;
9461;SDS011;4769;42.660;23.262;2023-05-02T00:21:49;5.72;;;5.18;;
9461;SDS011;4769;42.660;23.262;2023-05-02T00:24:15;7.07;;;5.20;;
9461;SDS011;4769;42.660;23.262;2023-05-02T00:26:41;5.93;;;4.97;;
9461;SDS011;4769;42.660;23.262;2023-05-02T00:29:10;5.43;;;4.90;;
9461;SDS011;4769;42.660;23.262;2023-05-02T00:31:35;5.82;;;5.22;;
9461;SDS011;4769;42.660;23.262;2023-05-02T00:34:01;5.57;;;5.03;;
9461;SDS011;4769;42.660;23.262;2023-05-02T00:36:27;7.15;;;5.53;;
9461;SDS011;4769;42.660;23.262;2023-05-02T00:38:52;5.38;;;4.88;;
9461;SDS011;4769;42.660;23.262;2023-05-02T00:41:18;5.75;;;5.13;;
9461;SDS011;4769;42.660;23.262;2023-05-02T00:43:44;6.85;;;5.72;;
9461;SDS011;4769;42.660;23.262;2023-05-02T00:46:12;7.65;;;5.32;;
9461;SDS011;4769;42.660;23.262;2023-05-02T00:48:38;5.75;;;5.15;;
9461;SDS011;4769;42.660;23.262;2023-05-02T00:51:04;5.85;;;5.30;;
9461;SDS011;4769;42.660;23.262;2023-05-02T00:53:30;7.65;;;5.63;;
9461;SDS011;4769;42.660;23.262;2023-05-02T00:55:56;8.18;;;5.32;;
9461;SDS011;4769;42.660;23.262;2023-05-02T00:58:22;6.25;;;5.70;;
9461;SDS011;4769;42.660;23.262;2023-05-02T01:00:55;6.13;;;5.45;;
9461;SDS011;4769;42.660;23.262;2023-05-02T01:03:35;6.60;;;5.45;;
9461;SDS011;4769;42.660;23.262;2023-05-02T01:06:09;8.07;;;5.03;;
9461;SDS011;4769;42.660;23.262;2023-05-02T01:08:46;5.07;;;4.68;;
9461;SDS011;4769;42.660;23.262;2023-05-02T01:11:17;5.80;;;5.15;;
9461;SDS011;4769;42.660;23.262;2023-05-02T01:13:52;6.28;;;5.68;;
9461;SDS011;4769;42.660;23.262;2023-05-02T01:16:22;7.25;;;5.18;;
9461;SDS011;4769;42.660;23.262;2023-05-02T01:18:52;5.60;;;5.20;;
9461;SDS011;4769;42.660;23.262;2023-05-02T01:21:18;5.68;;;5.15;;
9461;SDS011;4769;42.660;23.262;2023-05-02T01:23:47;6.45;;;5.25;;
9461;SDS011;4769;42.660;23.262;2023-05-02T01:26:23;5.85;;;5.25;;
9461;SDS011;4769;42.660;23.262;2023-05-02T01:29:00;6.53;;;5.35;;
9461;SDS011;4769;42.660;23.262;2023-05-02T01:31:28;7.93;;;5.40;;
9461;SDS011;4769;42.660;23.262;2023-05-02T01:33:57;5.57;;;5.00;;
9461;SDS011;4769;42.660;23.262;2023-05-02T01:36:25;6.18;;;5.57;;
9461;SDS011;4769;42.660;23.262;2023-05-02T01:38:54;6.22;;;5.18;;
9461;SDS011;4769;42.660;23.262;2023-05-02T01:41:20;6.07;;;5.43;;
9461;SDS011;4769;42.660;23.262;2023-05-02T01:43:49;9.98;;;6.22;;
9461;SDS011;4769;42.660;23.262;2023-05-02T01:46:18;6.43;;;5.68;;
9461;SDS011;4769;42.660;23.262;2023-05-02T01:48:45;10.18;;;5.95;;
9461;SDS011;4769;42.660;23.262;2023-05-02T01:51:12;7.32;;;4.93;;
9461;SDS011;4769;42.660;23.262;2023-05-02T01:53:41;5.82;;;5.28;;
9461;SDS011;4769;42.660;23.262;2023-05-02T01:56:09;5.53;;;5.10;;
9461;SDS011;4769;42.660;23.262;2023-05-02T01:58:35;5.18;;;4.57;;
9461;SDS011;4769;42.660;23.262;2023-05-02T02:01:03;6.85;;;5.30;;
9461;SDS011;4769;42.660;23.262;2023-05-02T02:03:32;6.70;;;5.60;;
9461;SDS011;4769;42.660;23.262;2023-05-02T02:05:58;6.32;;;5.00;;
9461;SDS011;4769;42.660;23.262;2023-05-02T02:08:26;5.47;;;4.95;;
9461;SDS011;4769;42.660;23.262;2023-05-02T02:10:53;5.82;;;5.32;;
9461;SDS011;4769;42.660;23.262;2023-05-02T02:13:24;5.70;;;5.20;;
9461;SDS011;4769;42.660;23.262;2023-05-02T02:15:58;6.22;;;5.72;;
9461;SDS011;4769;42.660;23.262;2023-05-02T02:18:28;5.57;;;5.10;;
9461;SDS011;4769;42.660;23.262;2023-05-02T02:21:00;5.38;;;4.97;;
9461;SDS011;4769;42.660;23.262;2023-05-02T02:23:27;5.90;;;5.30;;
9461;SDS011;4769;42.660;23.262;2023-05-02T02:25:54;6.15;;;5.57;;
9461;SDS011;4769;42.660;23.262;2023-05-02T02:28:21;6.47;;;5.25;;
9461;SDS011;4769;42.660;23.262;2023-05-02T02:30:47;6.75;;;5.65;;
9461;SDS011;4769;42.660;23.262;2023-05-02T02:33:13;6.63;;;5.95;;
9461;SDS011;4769;42.660;23.262;2023-05-02T02:35:42;7.13;;;5.75;;
9461;SDS011;4769;42.660;23.262;2023-05-02T02:38:15;5.90;;;5.40;;
9461;SDS011;4769;42.660;23.262;2023-05-02T02:40:50;6.18;;;5.53;;
9461;SDS011;4769;42.660;23.262;2023-05-02T02:43:25;6.32;;;5.32;;
9461;SDS011;4769;42.660;23.262;2023-05-02T02:46:01;6.63;;;5.93;;
9461;SDS011;4769;42.660;23.262;2023-05-02T02:48:36;6.40;;;5.80;;
9461;SDS011;4769;42.660;23.262;2023-05-02T02:51:10;6.20;;;5.70;;
9461;SDS011;4769;42.660;23.262;2023-05-02T02:53:43;7.53;;;6.27;;
9461;SDS011;4769;42.660;23.262;2023-05-02T02:56:19;6.93;;;5.90;;
9461;SDS011;4769;42.660;23.262;2023-05-02T02:58:53;6.47;;;5.88;;
9461;SDS011;4769;42.660;23.262;2023-05-02T03:01:23;7.87;;;5.80;;
9461;SDS011;4769;42.660;23.262;2023-05-02T03:03:51;6.63;;;5.87;;
9461;SDS011;4769;42.660;23.262;2023-05-02T03:06:21;8.20;;;6.23;;
9461;SDS011;4769;42.660;23.262;2023-05-02T03:08:49;7.97;;;6.60;;
9461;SDS011;4769;42.660;23.262;2023-05-02T03:11:14;9.57;;;6.47;;
9461;SDS011;4769;42.660;23.262;2023-05-02T03:13:40;6.53;;;5.93;;
9461;SDS011;4769;42.660;23.262;2023-05-02T03:16:13;7.40;;;5.97;;
9461;SDS011;4769;42.660;23.262;2023-05-02T03:18:55;11.50;;;5.90;;
9461;SDS011;4769;42.660;23.262;2023-05-02T03:21:23;6.30;;;5.70;;
9461;SDS011;4769;42.660;23.262;2023-05-02T03:23:49;7.07;;;6.10;;
9461;SDS011;4769;42.660;23.262;2023-05-02T03:26:15;9.37;;;6.83;;
9461;SDS011;4769;42.660;23.262;2023-05-02T03:28:41;8.37;;;6.43;;
9461;SDS011;4769;42.660;23.262;2023-05-02T03:31:07;7.23;;;6.20;;
9461;SDS011;4769;42.660;23.262;2023-05-02T03:33:33;8.83;;;6.80;;
9461;SDS011;4769;42.660;23.262;2023-05-02T03:35:59;8.07;;;6.93;;
9461;SDS011;4769;42.660;23.262;2023-05-02T03:38:27;7.63;;;6.70;;
9461;SDS011;4769;42.660;23.262;2023-05-02T03:40:55;7.20;;;6.50;;
9461;SDS011;4769;42.660;23.262;2023-05-02T03:43:21;10.20;;;6.70;;
9461;SDS011;4769;42.660;23.262;2023-05-02T03:45:47;6.83;;;6.13;;
9461;SDS011;4769;42.660;23.262;2023-05-02T03:48:13;9.43;;;7.57;;
9461;SDS011;4769;42.660;23.262;2023-05-02T03:50:38;7.70;;;7.00;;
9461;SDS011;4769;42.660;23.262;2023-05-02T03:53:04;10.33;;;6.60;;
9461;SDS011;4769;42.660;23.262;2023-05-02T03:55:33;9.70;;;8.10;;
9461;SDS011;4769;42.660;23.262;2023-05-02T03:58:03;8.37;;;7.00;;
9461;SDS011;4769;42.660;23.262;2023-05-02T04:00:30;9.07;;;7.07;;
9461;SDS011;4769;42.660;23.262;2023-05-02T04:02:56;11.27;;;7.65;;
9461;SDS011;4769;42.660;23.262;2023-05-02T04:05:21;8.95;;;7.65;;
9461;SDS011;4769;42.660;23.262;2023-05-02T04:07:47;7.75;;;6.82;;
9461;SDS011;4769;42.660;23.262;2023-05-02T04:10:13;7.75;;;7.05;;
9461;SDS011;4769;42.660;23.262;2023-05-02T04:12:41;7.03;;;6.03;;
9461;SDS011;4769;42.660;23.262;2023-05-02T04:15:08;7.70;;;6.90;;
9461;SDS011;4769;42.660;23.262;2023-05-02T04:17:34;8.57;;;6.72;;
9461;SDS011;4769;42.660;23.262;2023-05-02T04:20:00;7.55;;;6.75;;
9461;SDS011;4769;42.660;23.262;2023-05-02T04:22:26;9.32;;;7.75;;
9461;SDS011;4769;42.660;23.262;2023-05-02T04:24:52;11.45;;;7.30;;
9461;SDS011;4769;42.660;23.262;2023-05-02T04:27:17;8.73;;;7.70;;
9461;SDS011;4769;42.660;23.262;2023-05-02T04:29:46;13.40;;;8.68;;
9461;SDS011;4769;42.660;23.262;2023-05-02T04:32:12;11.43;;;8.25;;
9461;SDS011;4769;42.660;23.262;2023-05-02T04:34:38;13.93;;;8.70;;
9461;SDS011;4769;42.660;23.262;2023-05-02T04:37:04;8.52;;;7.05;;
9461;SDS011;4769;42.660;23.262;2023-05-02T04:39:33;7.70;;;6.70;;
9461;SDS011;4769;42.660;23.262;2023-05-02T04:42:02;11.90;;;7.25;;
9461;SDS011;4769;42.660;23.262;2023-05-02T04:44:28;8.30;;;6.72;;
9461;SDS011;4769;42.660;23.262;2023-05-02T04:46:56;15.32;;;7.07;;
9461;SDS011;4769;42.660;23.262;2023-05-02T04:49:22;7.47;;;6.78;;
9461;SDS011;4769;42.660;23.262;2023-05-02T04:51:48;8.23;;;6.05;;
9461;SDS011;4769;42.660;23.262;2023-05-02T04:54:13;11.82;;;7.00;;
9461;SDS011;4769;42.660;23.262;2023-05-02T04:56:39;9.15;;;6.95;;
9461;SDS011;4769;42.660;23.262;2023-05-02T04:59:05;13.65;;;6.53;;
9461;SDS011;4769;42.660;23.262;2023-05-02T05:01:31;9.25;;;6.10;;
9461;SDS011;4769;42.660;23.262;2023-05-02T05:03:59;7.85;;;6.10;;
9461;SDS011;4769;42.660;23.262;2023-05-02T05:06:25;7.57;;;6.20;;
9461;SDS011;4769;42.660;23.262;2023-05-02T05:08:51;8.50;;;5.95;;
9461;SDS011;4769;42.660;23.262;2023-05-02T05:11:16;6.35;;;5.72;;
9461;SDS011;4769;42.660;23.262;2023-05-02T05:13:42;14.52;;;6.20;;
9461;SDS011;4769;42.660;23.262;2023-05-02T05:16:08;8.07;;;5.97;;
9461;SDS011;4769;42.660;23.262;2023-05-02T05:18:34;7.63;;;5.60;;
9461;SDS011;4769;42.660;23.262;2023-05-02T05:21:02;6.40;;;5.70;;
9461;SDS011;4769;42.660;23.262;2023-05-02T05:23:28;9.63;;;6.13;;
9461;SDS011;4769;42.660;23.262;2023-05-02T05:25:53;6.47;;;5.65;;
9461;SDS011;4769;42.660;23.262;2023-05-02T05:28:19;6.10;;;5.50;;
9461;SDS011;4769;42.660;23.262;2023-05-02T05:30:45;12.23;;;5.50;;
9461;SDS011;4769;42.660;23.262;2023-05-02T05:33:11;10.15;;;6.00;;
9461;SDS011;4769;42.660;23.262;2023-05-02T05:35:36;6.85;;;6.07;;
9461;SDS011;4769;42.660;23.262;2023-05-02T05:38:05;10.90;;;5.95;;
9461;SDS011;4769;42.660;23.262;2023-05-02T05:40:31;8.13;;;5.55;;
9461;SDS011;4769;42.660;23.262;2023-05-02T05:42:56;7.03;;;5.78;;
9461;SDS011;4769;42.660;23.262;2023-05-02T05:45:22;11.07;;;6.13;;
9461;SDS011;4769;42.660;23.262;2023-05-02T05:47:48;6.63;;;5.82;;
9461;SDS011;4769;42.660;23.262;2023-05-02T05:50:14;6.95;;;5.95;;
9461;SDS011;4769;42.660;23.262;2023-05-02T05:52:39;5.85;;;5.18;;
9461;SDS011;4769;42.660;23.262;2023-05-02T05:55:08;11.18;;;5.68;;
9461;SDS011;4769;42.660;23.262;2023-05-02T05:57:34;7.72;;;5.70;;
9461;SDS011;4769;42.660;23.262;2023-05-02T06:00:00;8.82;;;6.30;;
9461;SDS011;4769;42.660;23.262;2023-05-02T06:02:26;7.75;;;6.20;;
9461;SDS011;4769;42.660;23.262;2023-05-02T06:04:51;6.53;;;5.50;;
9461;SDS011;4769;42.660;23.262;2023-05-02T06:07:17;6.95;;;5.60;;
9461;SDS011;4769;42.660;23.262;2023-05-02T06:09:43;7.03;;;5.05;;
9461;SDS011;4769;42.660;23.262;2023-05-02T06:12:11;9.43;;;5.40;;
9461;SDS011;4769;42.660;23.262;2023-05-02T06:14:38;8.35;;;5.35;;
9461;SDS011;4769;42.660;23.262;2023-05-02T06:17:04;10.10;;;5.88;;
9461;SDS011;4769;42.660;23.262;2023-05-02T06:19:30;7.18;;;5.68;;
9461;SDS011;4769;42.660;23.262;2023-05-02T06:21:55;8.88;;;5.90;;
9461;SDS011;4769;42.660;23.262;2023-05-02T06:24:21;6.93;;;5.45;;
9461;SDS011;4769;42.660;23.262;2023-05-02T06:26:47;8.70;;;6.05;;
9461;SDS011;4769;42.660;23.262;2023-05-02T06:29:15;7.50;;;5.47;;
9461;SDS011;4769;42.660;23.262;2023-05-02T06:31:41;13.10;;;6.22;;
9461;SDS011;4769;42.660;23.262;2023-05-02T06:34:06;10.38;;;6.45;;
9461;SDS011;4769;42.660;23.262;2023-05-02T06:36:32;8.52;;;6.22;;
9461;SDS011;4769;42.660;23.262;2023-05-02T06:38:58;10.45;;;6.78;;
9461;SDS011;4769;42.660;23.262;2023-05-02T06:41:23;10.65;;;7.38;;
9461;SDS011;4769;42.660;23.262;2023-05-02T06:43:49;10.45;;;7.20;;
9461;SDS011;4769;42.660;23.262;2023-05-02T06:46:18;8.75;;;5.35;;
9461;SDS011;4769;42.660;23.262;2023-05-02T06:48:43;12.43;;;4.97;;
9461;SDS011;4769;42.660;23.262;2023-05-02T06:51:09;4.78;;;4.15;;
9461;SDS011;4769;42.660;23.262;2023-05-02T06:53:35;11.35;;;4.45;;
9461;SDS011;4769;42.660;23.262;2023-05-02T06:56:01;5.43;;;4.18;;
9461;SDS011;4769;42.660;23.262;2023-05-02T06:58:27;12.18;;;4.63;;
9461;SDS011;4769;42.660;23.262;2023-05-02T07:00:54;8.60;;;4.72;;
9461;SDS011;4769;42.660;23.262;2023-05-02T07:03:22;6.10;;;4.70;;
9461;SDS011;4769;42.660;23.262;2023-05-02T07:05:48;9.27;;;5.00;;
9461;SDS011;4769;42.660;23.262;2023-05-02T07:08:13;11.93;;;4.60;;
9461;SDS011;4769;42.660;23.262;2023-05-02T07:10:39;7.43;;;4.43;;
9461;SDS011;4769;42.660;23.262;2023-05-02T07:13:05;4.63;;;4.15;;
9461;SDS011;4769;42.660;23.262;2023-05-02T07:15:31;5.75;;;4.45;;
9461;SDS011;4769;42.660;23.262;2023-05-02T07:17:56;5.22;;;4.15;;
9461;SDS011;4769;42.660;23.262;2023-05-02T07:20:25;4.80;;;4.10;;
9461;SDS011;4769;42.660;23.262;2023-05-02T07:22:50;9.07;;;4.50;;
9461;SDS011;4769;42.660;23.262;2023-05-02T07:25:16;6.85;;;4.70;;
9461;SDS011;4769;42.660;23.262;2023-05-02T07:27:42;8.85;;;4.05;;
9461;SDS011;4769;42.660;23.262;2023-05-02T07:30:08;5.78;;;3.72;;
9461;SDS011;4769;42.660;23.262;2023-05-02T07:32:34;7.47;;;4.28;;
9461;SDS011;4769;42.660;23.262;2023-05-02T07:35:00;7.18;;;3.90;;
9461;SDS011;4769;42.660;23.262;2023-05-02T07:37:30;9.82;;;3.85;;
9461;SDS011;4769;42.660;23.262;2023-05-02T07:39:57;6.43;;;3.55;;
9461;SDS011;4769;42.660;23.262;2023-05-02T07:42:22;4.22;;;3.83;;
9461;SDS011;4769;42.660;23.262;2023-05-02T07:44:53;3.83;;;3.47;;
9461;SDS011;4769;42.660;23.262;2023-05-02T07:47:18;7.10;;;4.13;;
9461;SDS011;4769;42.660;23.262;2023-05-02T07:49:44;5.70;;;3.50;;
9461;SDS011;4769;42.660;23.262;2023-05-02T07:52:10;8.90;;;3.90;;
9461;SDS011;4769;42.660;23.262;2023-05-02T07:54:38;6.32;;;4.30;;
9461;SDS011;4769;42.660;23.262;2023-05-02T07:57:04;8.70;;;4.45;;
9461;SDS011;4769;42.660;23.262;2023-05-02T07:59:30;4.30;;;3.70;;
9461;SDS011;4769;42.660;23.262;2023-05-02T08:01:55;7.47;;;3.80;;
9461;SDS011;4769;42.660;23.262;2023-05-02T08:04:21;5.43;;;3.75;;
9461;SDS011;4769;42.660;23.262;2023-05-02T08:06:47;6.18;;;4.05;;
9461;SDS011;4769;42.660;23.262;2023-05-02T08:09:12;7.30;;;4.15;;
9461;SDS011;4769;42.660;23.262;2023-05-02T08:11:41;5.07;;;3.60;;
9461;SDS011;4769;42.660;23.262;2023-05-02T08:14:07;4.82;;;3.08;;
9461;SDS011;4769;42.660;23.262;2023-05-02T08:16:32;4.68;;;3.45;;
9461;SDS011;4769;42.660;23.262;2023-05-02T08:18:58;3.33;;;3.00;;
9461;SDS011;4769;42.660;23.262;2023-05-02T08:21:24;5.55;;;3.30;;
9461;SDS011;4769;42.660;23.262;2023-05-02T08:23:49;5.10;;;4.05;;
9461;SDS011;4769;42.660;23.262;2023-05-02T08:26:15;5.50;;;3.50;;
9461;SDS011;4769;42.660;23.262;2023-05-02T08:28:43;6.10;;;3.13;;
9461;SDS011;4769;42.660;23.262;2023-05-02T08:31:09;7.15;;;4.10;;
9461;SDS011;4769;42.660;23.262;2023-05-02T08:33:35;5.38;;;3.42;;
9461;SDS011;4769;42.660;23.262;2023-05-02T08:36:09;4.50;;;3.33;;
9461;SDS011;4769;42.660;23.262;2023-05-02T08:38:35;6.13;;;4.03;;
9461;SDS011;4769;42.660;23.262;2023-05-02T08:41:01;5.53;;;3.67;;
9461;SDS011;4769;42.660;23.262;2023-05-02T08:43:27;3.65;;;3.20;;
9461;SDS011;4769;42.660;23.262;2023-05-02T08:45:57;4.22;;;3.33;;
9461;SDS011;4769;42.660;23.262;2023-05-02T08:48:25;4.55;;;3.53;;
9461;SDS011;4769;42.660;23.262;2023-05-02T08:50:52;5.70;;;3.85;;
9461;SDS011;4769;42.660;23.262;2023-05-02T08:53:19;3.60;;;3.30;;
9461;SDS011;4769;42.660;23.262;2023-05-02T08:55:45;6.88;;;3.38;;
9461;SDS011;4769;42.660;23.262;2023-05-02T08:58:13;3.92;;;2.92;;
9461;SDS011;4769;42.660;23.262;2023-05-02T09:00:39;3.55;;;3.05;;
9461;SDS011;4769;42.660;23.262;2023-05-02T09:03:10;4.78;;;3.38;;
9461;SDS011;4769;42.660;23.262;2023-05-02T09:05:45;7.10;;;3.33;;
9461;SDS011;4769;42.660;23.262;2023-05-02T09:08:20;5.38;;;3.20;;
9461;SDS011;4769;42.660;23.262;2023-05-02T09:10:46;5.03;;;3.70;;
9461;SDS011;4769;42.660;23.262;2023-05-02T09:13:27;5.90;;;3.00;;
9461;SDS011;4769;42.660;23.262;2023-05-02T09:15:57;4.15;;;2.90;;
9461;SDS011;4769;42.660;23.262;2023-05-02T09:18:31;4.25;;;2.85;;
9461;SDS011;4769;42.660;23.262;2023-05-02T09:20:58;3.63;;;2.90;;
9461;SDS011;4769;42.660;23.262;2023-05-02T09:23:35;5.50;;;3.40;;
9461;SDS011;4769;42.660;23.262;2023-05-02T09:28:44;5.38;;;3.08;;
9461;SDS011;4769;42.660;23.262;2023-05-02T09:31:12;5.05;;;3.67;;
9461;SDS011;4769;42.660;23.262;2023-05-02T09:33:42;4.75;;;3.50;;
9461;SDS011;4769;42.660;23.262;2023-05-02T09:36:09;8.05;;;3.55;;
9461;SDS011;4769;42.660;23.262;2023-05-02T09:38:37;8.20;;;4.13;;
9461;SDS011;4769;42.660;23.262;2023-05-02T09:41:03;4.53;;;2.85;;
9461;SDS011;4769;42.660;23.262;2023-05-02T09:43:29;5.60;;;3.50;;
9461;SDS011;4769;42.660;23.262;2023-05-02T09:45:56;4.63;;;3.03;;
9461;SDS011;4769;42.660;23.262;2023-05-02T09:48:22;6.63;;;4.13;;
9461;SDS011;4769;42.660;23.262;2023-05-02T09:50:51;5.88;;;3.78;;
9461;SDS011;4769;42.660;23.262;2023-05-02T09:53:17;4.28;;;3.45;;
9461;SDS011;4769;42.660;23.262;2023-05-02T09:55:43;10.55;;;4.38;;
9461;SDS011;4769;42.660;23.262;2023-05-02T09:58:16;6.57;;;3.58;;
9461;SDS011;4769;42.660;23.262;2023-05-02T10:00:45;7.28;;;3.83;;
9461;SDS011;4769;42.660;23.262;2023-05-02T10:03:11;3.88;;;2.80;;
9461;SDS011;4769;42.660;23.262;2023-05-02T10:05:40;3.05;;;2.60;;
9461;SDS011;4769;42.660;23.262;2023-05-02T10:08:09;3.92;;;3.00;;
9461;SDS011;4769;42.660;23.262;2023-05-02T10:10:36;4.75;;;3.00;;
9461;SDS011;4769;42.660;23.262;2023-05-02T10:13:03;3.92;;;3.50;;
9461;SDS011;4769;42.660;23.262;2023-05-02T10:15:30;6.85;;;4.13;;
9461;SDS011;4769;42.660;23.262;2023-05-02T10:17:57;5.97;;;3.85;;
9461;SDS011;4769;42.660;23.262;2023-05-02T10:20:24;4.03;;;3.10;;
9461;SDS011;4769;42.660;23.262;2023-05-02T10:22:54;6.63;;;3.40;;
9461;SDS011;4769;42.660;23.262;2023-05-02T10:25:26;4.60;;;2.95;;
9461;SDS011;4769;42.660;23.262;2023-05-02T10:27:52;8.23;;;2.80;;
9461;SDS011;4769;42.660;23.262;2023-05-02T10:30:21;3.05;;;2.53;;
9461;SDS011;4769;42.660;23.262;2023-05-02T10:32:47;4.35;;;2.55;;
9461;SDS011;4769;42.660;23.262;2023-05-02T10:35:15;3.40;;;2.70;;
9461;SDS011;4769;42.660;23.262;2023-05-02T10:37:42;4.95;;;2.60;;
9461;SDS011;4769;42.660;23.262;2023-05-02T10:40:09;3.70;;;2.30;;
9461;SDS011;4769;42.660;23.262;2023-05-02T10:42:39;3.25;;;2.78;;
9461;SDS011;4769;42.660;23.262;2023-05-02T10:45:09;3.83;;;3.20;;
9461;SDS011;4769;42.660;23.262;2023-05-02T10:47:36;6.20;;;3.20;;
9461;SDS011;4769;42.660;23.262;2023-05-02T10:50:02;5.38;;;2.83;;
9461;SDS011;4769;42.660;23.262;2023-05-02T10:52:29;4.95;;;2.80;;
9461;SDS011;4769;42.660;23.262;2023-05-02T11:00:42;4.60;;;2.60;;
9461;SDS011;4769;42.660;23.262;2023-05-02T11:03:08;6.32;;;2.90;;
9461;SDS011;4769;42.660;23.262;2023-05-02T11:05:36;4.70;;;2.28;;
9461;SDS011;4769;42.660;23.262;2023-05-02T11:08:29;3.72;;;2.60;;
9461;SDS011;4769;42.660;23.262;2023-05-02T11:10:55;3.88;;;2.35;;
9461;SDS011;4769;42.660;23.262;2023-05-02T11:13:34;5.72;;;2.47;;
9461;SDS011;4769;42.660;23.262;2023-05-02T11:16:15;5.25;;;2.47;;
9461;SDS011;4769;42.660;23.262;2023-05-02T11:21:28;4.93;;;2.72;;
9461;SDS011;4769;42.660;23.262;2023-05-02T11:29:58;3.67;;;2.17;;
9461;SDS011;4769;42.660;23.262;2023-05-02T11:35:27;6.47;;;2.80;;
9461;SDS011;4769;42.660;23.262;2023-05-02T11:37:53;3.95;;;2.65;;
9461;SDS011;4769;42.660;23.262;2023-05-02T11:40:19;4.18;;;2.53;;
9461;SDS011;4769;42.660;23.262;2023-05-02T11:42:45;7.45;;;2.40;;
9461;SDS011;4769;42.660;23.262;2023-05-02T11:48:01;8.13;;;2.72;;
9461;SDS011;4769;42.660;23.262;2023-05-02T11:50:29;2.95;;;2.65;;
9461;SDS011;4769;42.660;23.262;2023-05-02T11:52:55;6.40;;;2.78;;
9461;SDS011;4769;42.660;23.262;2023-05-02T11:55:21;7.28;;;2.58;;
9461;SDS011;4769;42.660;23.262;2023-05-02T11:57:46;6.55;;;2.75;;
9461;SDS011;4769;42.660;23.262;2023-05-02T12:00:15;7.32;;;3.00;;
9461;SDS011;4769;42.660;23.262;2023-05-02T12:02:42;4.20;;;2.67;;
9461;SDS011;4769;42.660;23.262;2023-05-02T12:05:11;3.25;;;2.95;;
9461;SDS011;4769;42.660;23.262;2023-05-02T12:07:38;4.07;;;2.60;;
9461;SDS011;4769;42.660;23.262;2023-05-02T12:10:05;4.95;;;3.38;;
9461;SDS011;4769;42.660;23.262;2023-05-02T12:12:32;4.00;;;2.67;;
9461;SDS011;4769;42.660;23.262;2023-05-02T12:15:01;3.58;;;2.95;;
9461;SDS011;4769;42.660;23.262;2023-05-02T12:17:28;7.78;;;3.28;;
9461;SDS011;4769;42.660;23.262;2023-05-02T12:19:54;4.13;;;3.10;;
9461;SDS011;4769;42.660;23.262;2023-05-02T12:22:23;5.57;;;2.88;;
9461;SDS011;4769;42.660;23.262;2023-05-02T12:24:50;4.20;;;3.20;;
9461;SDS011;4769;42.660;23.262;2023-05-02T12:27:16;5.78;;;3.30;;
9461;SDS011;4769;42.660;23.262;2023-05-02T12:29:43;8.15;;;2.85;;
9461;SDS011;4769;42.660;23.262;2023-05-02T12:32:09;6.50;;;2.80;;
9461;SDS011;4769;42.660;23.262;2023-05-02T12:34:36;6.10;;;2.78;;
9461;SDS011;4769;42.660;23.262;2023-05-02T12:37:02;5.90;;;2.42;;
9461;SDS011;4769;42.660;23.262;2023-05-02T12:39:37;4.93;;;2.63;;
9461;SDS011;4769;42.660;23.262;2023-05-02T12:42:07;4.35;;;3.25;;
9461;SDS011;4769;42.660;23.262;2023-05-02T12:44:34;4.13;;;3.17;;
9461;SDS011;4769;42.660;23.262;2023-05-02T12:47:00;6.18;;;2.67;;
9461;SDS011;4769;42.660;23.262;2023-05-02T12:49:26;3.08;;;2.33;;
9461;SDS011;4769;42.660;23.262;2023-05-02T12:51:52;3.83;;;2.50;;
9461;SDS011;4769;42.660;23.262;2023-05-02T12:54:21;4.78;;;2.90;;
9461;SDS011;4769;42.660;23.262;2023-05-02T12:56:49;3.00;;;2.42;;
9461;SDS011;4769;42.660;23.262;2023-05-02T12:59:24;4.43;;;2.50;;
9461;SDS011;4769;42.660;23.262;2023-05-02T13:01:51;4.90;;;2.20;;
9461;SDS011;4769;42.660;23.262;2023-05-02T13:04:17;3.42;;;2.63;;
9461;SDS011;4769;42.660;23.262;2023-05-02T13:06:43;4.43;;;2.33;;
9461;SDS011;4769;42.660;23.262;2023-05-02T13:09:09;6.00;;;3.20;;
9461;SDS011;4769;42.660;23.262;2023-05-02T13:11:34;4.32;;;2.47;;
9461;SDS011;4769;42.660;23.262;2023-05-02T13:14:03;6.50;;;2.70;;
9461;SDS011;4769;42.660;23.262;2023-05-02T13:16:29;4.75;;;2.63;;
9461;SDS011;4769;42.660;23.262;2023-05-02T13:18:54;2.78;;;2.38;;
9461;SDS011;4769;42.660;23.262;2023-05-02T13:21:20;4.15;;;2.40;;
9461;SDS011;4769;42.660;23.262;2023-05-02T13:23:46;12.23;;;2.70;;
9461;SDS011;4769;42.660;23.262;2023-05-02T13:26:11;5.57;;;2.75;;
9461;SDS011;4769;42.660;23.262;2023-05-02T13:28:37;9.07;;;2.83;;
9461;SDS011;4769;42.660;23.262;2023-05-02T13:31:06;7.10;;;2.30;;
9461;SDS011;4769;42.660;23.262;2023-05-02T13:33:31;8.73;;;2.47;;
9461;SDS011;4769;42.660;23.262;2023-05-02T13:35:57;4.65;;;1.90;;
9461;SDS011;4769;42.660;23.262;2023-05-02T13:38:23;3.53;;;2.33;;
9461;SDS011;4769;42.660;23.262;2023-05-02T13:40:49;6.97;;;2.70;;
9461;SDS011;4769;42.660;23.262;2023-05-02T13:43:15;7.45;;;2.70;;
9461;SDS011;4769;42.660;23.262;2023-05-02T13:45:40;5.25;;;2.60;;
9461;SDS011;4769;42.660;23.262;2023-05-02T13:48:09;2.78;;;2.45;;
9461;SDS011;4769;42.660;23.262;2023-05-02T13:50:35;2.88;;;2.38;;
9461;SDS011;4769;42.660;23.262;2023-05-02T13:53:00;3.85;;;2.47;;
9461;SDS011;4769;42.660;23.262;2023-05-02T13:55:26;2.60;;;2.38;;
9461;SDS011;4769;42.660;23.262;2023-05-02T13:57:52;4.63;;;2.40;;
9461;SDS011;4769;42.660;23.262;2023-05-02T14:00:18;7.25;;;2.70;;
9461;SDS011;4769;42.660;23.262;2023-05-02T14:02:44;6.05;;;2.72;;
9461;SDS011;4769;42.660;23.262;2023-05-02T14:05:12;3.53;;;2.55;;
9461;SDS011;4769;42.660;23.262;2023-05-02T14:07:38;3.88;;;2.13;;
9461;SDS011;4769;42.660;23.262;2023-05-02T14:10:04;5.30;;;2.30;;
9461;SDS011;4769;42.660;23.262;2023-05-02T14:12:31;6.25;;;2.20;;
9461;SDS011;4769;42.660;23.262;2023-05-02T14:14:56;4.25;;;2.22;;
9461;SDS011;4769;42.660;23.262;2023-05-02T14:17:22;5.90;;;2.50;;
9461;SDS011;4769;42.660;23.262;2023-05-02T14:19:48;2.75;;;2.30;;
9461;SDS011;4769;42.660;23.262;2023-05-02T14:22:16;4.45;;;2.90;;
9461;SDS011;4769;42.660;23.262;2023-05-02T14:24:42;7.65;;;2.70;;
9461;SDS011;4769;42.660;23.262;2023-05-02T14:27:08;2.95;;;2.22;;
9461;SDS011;4769;42.660;23.262;2023-05-02T14:29:33;3.78;;;3.15;;
9461;SDS011;4769;42.660;23.262;2023-05-02T14:31:59;10.18;;;3.60;;
9461;SDS011;4769;42.660;23.262;2023-05-02T14:34:25;6.00;;;3.47;;
9461;SDS011;4769;42.660;23.262;2023-05-02T14:36:51;4.78;;;2.42;;
9461;SDS011;4769;42.660;23.262;2023-05-02T14:39:19;5.00;;;2.35;;
9461;SDS011;4769;42.660;23.262;2023-05-02T14:41:45;4.72;;;2.60;;
9461;SDS011;4769;42.660;23.262;2023-05-02T14:44:10;4.47;;;2.60;;
9461;SDS011;4769;42.660;23.262;2023-05-02T14:46:36;5.25;;;2.22;;
9461;SDS011;4769;42.660;23.262;2023-05-02T14:49:02;6.95;;;2.25;;
9461;SDS011;4769;42.660;23.262;2023-05-02T14:51:27;4.85;;;2.63;;
9461;SDS011;4769;42.660;23.262;2023-05-02T14:53:53;2.97;;;2.15;;
9461;SDS011;4769;42.660;23.262;2023-05-02T14:56:21;5.85;;;2.20;;
9461;SDS011;4769;42.660;23.262;2023-05-02T14:58:47;4.53;;;2.30;;
9461;SDS011;4769;42.660;23.262;2023-05-02T15:01:16;5.15;;;2.13;;
9461;SDS011;4769;42.660;23.262;2023-05-02T15:03:42;7.28;;;2.58;;
9461;SDS011;4769;42.660;23.262;2023-05-02T15:06:08;5.18;;;2.45;;
9461;SDS011;4769;42.660;23.262;2023-05-02T15:08:34;7.00;;;2.40;;
9461;SDS011;4769;42.660;23.262;2023-05-02T15:10:59;4.47;;;1.88;;
9461;SDS011;4769;42.660;23.262;2023-05-02T15:13:28;5.65;;;2.20;;
9461;SDS011;4769;42.660;23.262;2023-05-02T15:15:53;6.55;;;2.70;;
9461;SDS011;4769;42.660;23.262;2023-05-02T15:18:19;4.32;;;2.25;;
9461;SDS011;4769;42.660;23.262;2023-05-02T15:20:45;3.33;;;2.50;;
9461;SDS011;4769;42.660;23.262;2023-05-02T15:23:11;4.50;;;2.42;;
9461;SDS011;4769;42.660;23.262;2023-05-02T15:25:36;6.05;;;2.58;;